createdAt,value
2017-12-08T16:48:38.507Z,937.3
2017-12-08T16:49:46.464Z,937.3
2017-12-08T16:50:56.061Z,937.4
2017-12-08T16:52:02.701Z,937.3
2017-12-08T16:53:12.145Z,937.4
2017-12-08T16:54:18.881Z,937.4
2017-12-08T16:55:26.958Z,937.4
2017-12-08T16:56:35.052Z,937.4
2017-12-08T16:57:43.134Z,937.4
2017-12-08T16:58:51.290Z,937.3
2017-12-08T16:59:59.317Z,937.3
2017-12-08T17:01:07.600Z,937.3
2017-12-08T17:02:25.437Z,937.4
2017-12-08T17:03:23.578Z,937.4
2017-12-08T17:04:31.900Z,937.4
2017-12-08T17:05:39.952Z,937.4
2017-12-08T17:06:47.953Z,937.5
2017-12-08T17:07:56.057Z,937.5
2017-12-08T17:09:05.971Z,937.5
2017-12-08T17:10:14.251Z,937.4
2017-12-08T17:11:25.570Z,937.5
2017-12-08T17:12:39.833Z,937.5
2017-12-08T17:13:43.089Z,937.5
2017-12-08T17:14:51.184Z,937.5
2017-12-08T17:15:59.316Z,937.4
2017-12-08T17:17:07.361Z,937.4
2017-12-08T17:18:15.440Z,937.4
2017-12-08T17:19:23.530Z,937.4
2017-12-08T17:20:31.653Z,937.3
2017-12-08T17:21:43.238Z,937.4
2017-12-08T17:22:47.802Z,937.4
2017-12-08T17:23:55.893Z,937.4
2017-12-08T17:25:03.975Z,937.4
2017-12-08T17:26:12.061Z,937.4
2017-12-08T17:27:21.392Z,937.4
2017-12-08T17:28:28.237Z,937.4
2017-12-08T17:29:36.352Z,937.5
2017-12-08T17:30:44.788Z,937.4
2017-12-08T17:31:52.756Z,937.4
2017-12-08T17:33:00.678Z,937.4
2017-12-08T17:34:08.666Z,937.4
2017-12-08T17:35:17.271Z,937.4
2017-12-08T17:36:33.677Z,937.3
2017-12-08T17:37:33.388Z,937.3
2017-12-08T17:38:41.534Z,937.3
2017-12-08T17:39:49.604Z,937.3
2017-12-08T17:40:57.655Z,937.3
2017-12-08T17:42:05.746Z,937.4
2017-12-08T17:43:13.836Z,937.4
2017-12-08T17:44:23.458Z,937.4
2017-12-08T17:46:39.212Z,937.3
2017-12-08T17:47:47.464Z,937.3
2017-12-08T17:48:55.390Z,937.3
2017-12-08T17:50:03.589Z,937.4
2017-12-08T17:51:11.611Z,937.4
2017-12-08T17:52:19.668Z,937.4
2017-12-08T17:53:27.730Z,937.4
2017-12-08T17:54:35.828Z,937.4
2017-12-08T17:55:43.963Z,937.5
2017-12-08T17:56:52.006Z,937.5
2017-12-08T17:58:00.450Z,937.5
2017-12-08T17:59:08.178Z,937.5
2017-12-08T18:00:16.969Z,937.5
2017-12-08T18:01:24.482Z,937.4
2017-12-08T18:02:32.720Z,937.5
2017-12-08T18:03:40.805Z,937.5
2017-12-08T18:04:48.928Z,937.5
2017-12-08T18:07:08.364Z,937.5
2017-12-08T18:08:16.396Z,937.5
2017-12-08T18:09:24.697Z,937.5
2017-12-08T18:10:32.569Z,937.5
2017-12-08T18:11:40.656Z,937.5
2017-12-08T18:12:48.864Z,937.5
2017-12-08T18:13:56.829Z,937.5
2017-12-08T18:15:04.916Z,937.5
2017-12-08T18:16:13.004Z,937.5
2017-12-08T18:17:21.088Z,937.5
2017-12-08T18:18:29.241Z,937.6
2017-12-08T18:19:37.265Z,937.6
2017-12-08T18:20:45.352Z,937.6
2017-12-08T18:21:53.534Z,937.6
2017-12-08T18:23:01.742Z,937.6
2017-12-08T18:24:10.004Z,937.7
2017-12-08T18:25:17.959Z,937.6
2017-12-08T18:26:25.931Z,937.6
2017-12-08T18:27:34.016Z,937.6
2017-12-08T18:28:42.102Z,937.6
2017-12-08T18:29:50.244Z,937.6
2017-12-08T18:30:58.281Z,937.6
2017-12-08T18:32:06.367Z,937.6
2017-12-08T18:33:14.463Z,937.6
2017-12-08T18:34:22.669Z,937.7
2017-12-08T18:35:30.682Z,937.7
2017-12-08T18:36:38.713Z,937.7
2017-12-08T18:37:46.828Z,937.6
2017-12-08T18:38:55.060Z,937.6
2017-12-08T18:40:03.042Z,937.6
2017-12-08T18:41:11.183Z,937.6
2017-12-08T18:42:19.150Z,937.6
2017-12-08T18:43:27.347Z,937.6
2017-12-08T18:44:35.325Z,937.5
2017-12-08T18:45:43.408Z,937.6
2017-12-08T18:46:51.551Z,937.5
2017-12-08T18:47:59.586Z,937.6
2017-12-08T18:49:07.670Z,937.5
2017-12-08T18:50:15.754Z,937.5
2017-12-08T18:51:23.843Z,937.5
2017-12-08T18:52:32.050Z,937.5
2017-12-08T18:53:40.018Z,937.5
2017-12-08T18:54:48.225Z,937.5
2017-12-08T18:55:56.191Z,937.5
2017-12-08T18:57:04.277Z,937.5
2017-12-08T18:58:12.447Z,937.4
2017-12-08T18:59:20.451Z,937.5
2017-12-08T19:00:28.539Z,937.4
2017-12-08T19:01:36.692Z,937.4
2017-12-08T19:02:44.720Z,937.4
2017-12-08T19:03:52.922Z,937.4
2017-12-08T19:05:00.924Z,937.4
2017-12-08T19:06:09.134Z,937.4
2017-12-08T19:07:17.061Z,937.4
2017-12-08T19:08:25.146Z,937.5
2017-12-08T19:09:33.290Z,937.4
2017-12-08T19:10:41.499Z,937.5
2017-12-08T19:11:49.410Z,937.5
2017-12-08T19:12:57.496Z,937.4
2017-12-08T19:14:05.585Z,937.4
2017-12-08T19:15:13.726Z,937.4
2017-12-08T19:16:21.758Z,937.4
2017-12-08T19:17:29.845Z,937.4
2017-12-08T19:18:37.930Z,937.4
2017-12-08T19:19:46.018Z,937.4
2017-12-08T19:20:54.160Z,937.4
2017-12-08T19:22:02.195Z,937.4
2017-12-08T19:23:10.282Z,937.4
2017-12-08T19:24:18.366Z,937.4
2017-12-08T19:25:26.451Z,937.4
2017-12-08T19:26:34.660Z,937.3
2017-12-08T19:27:42.625Z,937.3
2017-12-08T19:28:50.728Z,937.2
2017-12-08T19:29:58.943Z,937.2
2017-12-08T19:31:06.898Z,937.2
2017-12-08T19:32:15.043Z,937.2
2017-12-08T19:33:23.087Z,937.2
2017-12-08T19:34:31.158Z,937.2
2017-12-08T19:35:39.246Z,937.2
2017-12-08T19:36:47.333Z,937.2
2017-12-08T19:37:55.542Z,937.2
2017-12-08T19:39:03.603Z,937.2
2017-12-08T19:40:11.596Z,937.2
2017-12-08T19:41:19.696Z,937.2
2017-12-08T19:42:27.827Z,937.2
2017-12-08T19:43:35.980Z,937.2
2017-12-08T19:44:43.941Z,937.3
2017-12-08T19:45:52.032Z,937.3
2017-12-08T19:47:00.117Z,937.3
2017-12-08T19:48:08.391Z,937.3
2017-12-08T19:49:16.414Z,937.3
2017-12-08T19:50:24.382Z,937.4
2017-12-08T19:51:32.488Z,937.4
2017-12-08T19:52:40.570Z,937.4
2017-12-08T19:53:48.646Z,937.4
2017-12-08T19:54:56.797Z,937.4
2017-12-08T19:56:05.015Z,937.4
2017-12-08T19:57:12.916Z,937.5
2017-12-08T19:58:21.123Z,937.4
2017-12-08T19:59:29.092Z,937.5
2017-12-08T20:00:37.298Z,937.4
2017-12-08T20:01:45.472Z,937.3
2017-12-08T20:02:53.353Z,937.3
2017-12-08T20:04:01.485Z,937.3
2017-12-08T20:05:09.555Z,937.3
2017-12-08T20:06:17.851Z,937.3
2017-12-08T20:07:25.749Z,937.3
2017-12-08T20:08:33.818Z,937.3
2017-12-08T20:09:41.907Z,937.2
2017-12-08T20:10:50.067Z,937.2
2017-12-08T20:11:58.138Z,937.2
2017-12-08T20:13:06.172Z,937.2
2017-12-08T20:14:14.377Z,937.2
2017-12-08T20:15:22.488Z,937.2
2017-12-08T20:16:30.434Z,937.2
2017-12-08T20:17:38.582Z,937.2
2017-12-08T20:18:46.619Z,937.3
2017-12-08T20:19:54.719Z,937.3
2017-12-08T20:21:02.809Z,937.3
2017-12-08T20:22:10.882Z,937.3
2017-12-08T20:23:19.089Z,937.3
2017-12-08T20:24:27.068Z,937.4
2017-12-08T20:25:35.158Z,937.3
2017-12-08T20:26:43.248Z,937.3
2017-12-08T20:27:52.046Z,937.3
2017-12-08T20:28:59.532Z,937.3
2017-12-08T20:30:07.574Z,937.3
2017-12-08T20:31:15.585Z,937.3
2017-12-08T20:32:23.674Z,937.3
2017-12-08T20:33:31.772Z,937.3
2017-12-08T20:34:39.905Z,937.4
2017-12-08T20:35:47.950Z,937.3
2017-12-08T20:36:56.025Z,937.3
2017-12-08T20:38:04.119Z,937.3
2017-12-08T20:39:12.200Z,937.3
2017-12-08T20:40:21.231Z,937.3
2017-12-08T20:41:28.391Z,937.3
2017-12-08T20:42:36.463Z,937.3
2017-12-08T20:43:44.552Z,937.3
2017-12-08T20:44:52.655Z,937.3
2017-12-08T20:46:00.785Z,937.3
2017-12-08T20:47:08.969Z,937.2
2017-12-08T20:48:17.007Z,937.2
2017-12-08T20:49:25.091Z,937.2
2017-12-08T20:50:33.179Z,937.1
2017-12-08T20:51:41.322Z,937.1
2017-12-08T20:52:49.355Z,937.1
2017-12-08T20:53:57.450Z,937.0
2017-12-08T20:55:05.540Z,937.1
2017-12-08T20:56:13.653Z,937.0
2017-12-08T20:57:21.837Z,937.0
2017-12-08T20:58:29.812Z,937.0
2017-12-08T20:59:37.890Z,937.0
2017-12-08T21:00:46.077Z,937.1
2017-12-08T21:01:54.123Z,937.1
2017-12-08T21:03:02.271Z,937.1
2017-12-08T21:04:10.381Z,937.1
2017-12-08T21:05:18.419Z,937.1
2017-12-08T21:06:26.433Z,937.1
2017-12-08T21:07:34.521Z,937.0
2017-12-08T21:08:42.664Z,937.0
2017-12-08T21:09:50.861Z,937.0
2017-12-08T21:10:58.783Z,937.0
2017-12-08T21:12:06.871Z,937.0
2017-12-08T21:13:14.958Z,937.0
2017-12-08T21:14:23.164Z,937.1
2017-12-08T21:15:31.139Z,937.0
2017-12-08T21:16:39.225Z,937.1
2017-12-08T21:17:47.370Z,937.1
2017-12-08T21:18:55.459Z,937.2
2017-12-08T21:20:03.608Z,937.2
2017-12-08T21:21:11.592Z,937.2
2017-12-08T21:22:19.692Z,937.3
2017-12-08T21:23:27.807Z,937.2
2017-12-08T21:24:35.876Z,937.2
2017-12-08T21:25:44.021Z,937.3
2017-12-08T21:26:52.053Z,937.2
2017-12-08T21:28:00.139Z,937.2
2017-12-08T21:29:08.230Z,937.2
2017-12-08T21:30:16.316Z,937.2
2017-12-08T21:31:24.456Z,937.2
2017-12-08T21:32:32.561Z,937.2
2017-12-08T21:33:40.697Z,937.2
2017-12-08T21:34:48.678Z,937.3
2017-12-08T21:35:56.753Z,937.3
2017-12-08T21:37:05.039Z,937.3
2017-12-08T21:38:12.929Z,937.3
2017-12-08T21:39:21.013Z,937.3
2017-12-08T21:40:29.100Z,937.3
2017-12-08T21:41:37.348Z,937.3
2017-12-08T21:42:45.399Z,937.3
2017-12-08T21:43:53.369Z,937.3
2017-12-08T21:45:01.459Z,937.3
2017-12-08T21:46:09.579Z,937.3
2017-12-08T21:47:17.632Z,937.2
2017-12-08T21:48:25.801Z,937.3
2017-12-08T21:49:33.944Z,937.3
2017-12-08T21:50:41.922Z,937.2
2017-12-08T21:51:49.999Z,937.3
2017-12-08T21:52:58.092Z,937.3
2017-12-08T21:54:06.231Z,937.3
2017-12-08T21:55:14.350Z,937.3
2017-12-08T21:56:22.348Z,937.3
2017-12-08T21:57:30.437Z,937.3
2017-12-08T21:58:38.526Z,937.4
2017-12-08T21:59:46.670Z,937.3
2017-12-08T22:00:54.704Z,937.3
2017-12-08T22:02:02.790Z,937.4
2017-12-08T22:03:10.882Z,937.4
2017-12-08T22:04:19.034Z,937.4
2017-12-08T22:05:27.173Z,937.4
2017-12-08T22:06:35.139Z,937.5
2017-12-08T22:07:43.229Z,937.5
2017-12-08T22:08:51.468Z,937.5
2017-12-08T22:09:59.404Z,937.5
2017-12-08T22:11:07.547Z,937.5
2017-12-08T22:12:15.586Z,937.5
2017-12-08T22:13:23.825Z,937.5
2017-12-08T22:14:31.759Z,937.5
2017-12-08T22:15:39.845Z,937.5
2017-12-08T22:16:48.055Z,937.5
2017-12-08T22:17:56.022Z,937.5
2017-12-08T22:19:04.111Z,937.6
2017-12-08T22:20:12.199Z,937.6
2017-12-08T22:21:20.344Z,937.5
2017-12-08T22:22:28.596Z,937.5
2017-12-08T22:23:36.465Z,937.5
2017-12-08T22:24:44.753Z,937.5
2017-12-08T22:25:52.721Z,937.5
2017-12-08T22:27:00.840Z,937.5
2017-12-08T22:28:08.954Z,937.5
2017-12-08T22:29:16.986Z,937.5
2017-12-08T22:30:25.079Z,937.6
2017-12-08T22:31:33.164Z,937.6
2017-12-08T22:32:41.254Z,937.6
2017-12-08T22:33:49.460Z,937.6
2017-12-08T22:34:57.431Z,937.6
2017-12-08T22:36:05.534Z,937.7
2017-12-08T22:37:13.660Z,937.6
2017-12-08T22:38:21.780Z,937.6
2017-12-08T22:39:29.900Z,937.6
2017-12-08T22:40:37.942Z,937.6
2017-12-08T22:41:45.956Z,937.6
2017-12-08T22:42:54.055Z,937.6
2017-12-08T22:44:02.134Z,937.7
2017-12-08T22:45:10.276Z,937.7
2017-12-08T22:46:18.309Z,937.6
2017-12-08T22:47:26.530Z,937.7
2017-12-08T22:48:34.488Z,937.6
2017-12-08T22:49:42.638Z,937.6
2017-12-08T22:50:50.785Z,937.6
2017-12-08T22:51:58.752Z,937.6
2017-12-08T22:53:06.974Z,937.7
2017-12-08T22:54:15.062Z,937.7
2017-12-08T22:55:23.097Z,937.7
2017-12-08T22:56:31.303Z,937.7
2017-12-08T22:57:39.270Z,937.6
2017-12-08T22:58:47.416Z,937.7
2017-12-08T22:59:55.750Z,937.7
2017-12-08T23:01:03.535Z,937.6
2017-12-08T23:02:11.680Z,937.6
2017-12-08T23:03:19.727Z,937.6
2017-12-08T23:04:27.803Z,937.6
2017-12-08T23:05:35.892Z,937.6
2017-12-08T23:06:44.155Z,937.6
2017-12-08T23:07:52.191Z,937.6
2017-12-08T23:09:00.210Z,937.6
2017-12-08T23:10:08.242Z,937.6
2017-12-08T23:11:16.352Z,937.7
2017-12-08T23:12:24.506Z,937.6
2017-12-08T23:13:32.572Z,937.7
2017-12-08T23:14:40.605Z,937.7
2017-12-08T23:15:48.849Z,937.7
2017-12-08T23:16:56.843Z,937.6
2017-12-08T23:18:04.870Z,937.6
2017-12-08T23:19:13.015Z,937.6
2017-12-08T23:20:21.046Z,937.6
2017-12-08T23:21:29.135Z,937.7
2017-12-08T23:22:37.223Z,937.6
2017-12-08T23:23:45.312Z,937.7
2017-12-08T23:24:53.599Z,937.7
2017-12-08T23:26:01.490Z,937.6
2017-12-08T23:27:09.576Z,937.6
2017-12-08T23:28:17.666Z,937.6
2017-12-08T23:29:25.759Z,937.6
2017-12-08T23:30:33.934Z,937.6
2017-12-08T23:31:42.013Z,937.5
2017-12-08T23:32:50.048Z,937.5
2017-12-08T23:33:58.138Z,937.6
2017-12-08T23:35:06.413Z,937.6
2017-12-08T23:36:14.372Z,937.6
2017-12-08T23:37:22.403Z,937.6
2017-12-08T23:38:30.493Z,937.6
2017-12-08T23:39:38.648Z,937.6
2017-12-08T23:40:46.722Z,937.6
2017-12-08T23:41:54.962Z,937.6
2017-12-08T23:43:02.995Z,937.5
2017-12-08T23:44:11.087Z,937.5
2017-12-08T23:45:19.174Z,937.6
2017-12-08T23:46:27.261Z,937.5
2017-12-08T23:47:35.611Z,937.5
2017-12-08T23:48:43.618Z,937.5
2017-12-08T23:49:51.524Z,937.5
2017-12-08T23:50:59.611Z,937.5
2017-12-08T23:52:07.827Z,937.5
2017-12-08T23:53:15.845Z,937.6
2017-12-08T23:54:23.882Z,937.6
2017-12-08T23:55:31.966Z,937.6
2017-12-08T23:56:40.174Z,937.6
2017-12-08T23:57:48.149Z,937.6
2017-12-08T23:58:56.300Z,937.6
